Time;durP1;ratioP1;P1;durP2;ratioP2;P2;SDS_P1;SDS_P2;PMS_P1;PMS_P2;Temp;Humidity;BMP_temperature;BMP_pressure;BME280_temperature;BME280_humidity;BME280_pressure;Samples;Min_cycle;Max_cycle;Signal;HPM_P1;HPM_P2
2023/01/12 07:08:53;;;;;;;;;;;;;;;;;;5107726;27;13559;-69
2023/01/12 07:11:19;;;;;;;;;;;;;;;;;;5107955;28;7531;-67
2023/01/12 07:13:44;;;;;;;;;;;;;;;;;;5107821;28;7559;-67
2023/01/12 07:16:09;;;;;;;;;;;;;;;;;;5107804;28;7536;-69
2023/01/12 07:18:34;;;;;;;;;;;;;;;;;;5107616;28;7520;-69
2023/01/12 07:20:59;;;;;;;;;;;;;;;;;;5108268;28;7584;-69
2023/01/12 07:23:24;;;;;;;;;;;;;;;;;;5108227;28;7512;-69
2023/01/12 07:25:49;;;;;;;;;;;;;;;;;;5108646;28;7531;-69
2023/01/12 07:28:15;;;;;;;;;;;;;;;;;;5108541;28;7524;-69
2023/01/12 07:30:40;;;;;;;;;36.00;32.67;;;;;;;;5106039;28;8784;-69
2023/01/12 07:33:07;;;;;;;;;29.25;27.25;;;;;;;;5104871;28;8823;-71
2023/01/12 07:35:32;;;;;;;;;36.33;30.67;;;;;;;;5102273;28;13592;-69
2023/01/12 07:37:58;;;;;;;;;32.75;29.25;;;;;;;;5104721;28;11516;-71
2023/01/12 07:40:23;;;;;;;;;34.25;27.75;;;;;;;;5106299;28;8884;-69
2023/01/12 07:42:56;;;;;;;;;38.75;35.00;;;;;;;;5106182;28;8776;-69
2023/01/12 07:45:21;;;;;;;;;;;;;;;;;;5107731;28;8823;-72
2023/01/12 07:47:47;;;;;;;;;;;;;;;;;;5106284;28;7535;-73
2023/01/12 07:50:12;;;;;;;;;;;;;;;;;;5107958;28;7535;-71
2023/01/12 07:52:37;;;;;;;;;;;;;;;;;;5107991;28;7540;-72
2023/01/12 07:55:02;;;;;;;;;;;;;;;;;;5108228;28;7536;-69
2023/01/12 07:57:28;;;;;;;;;;;;;;;;;;5106415;28;7979;-69
2023/01/12 07:59:53;;;;;;;;;;;;;;;;;;5107830;28;7639;-69
2023/01/12 08:02:18;;;;;;;;;;;;;;;;;;5107782;28;8005;-68
2023/01/12 08:04:43;;;;;;;;;;;;;;;;;;5107540;28;7535;-67
2023/01/12 08:07:08;;;;;;;;;;;;;;;;;;5107008;28;7593;-68
2023/01/12 08:09:34;;;;;;;;;;;;;;;;;;5107853;28;7516;-67
2023/01/12 08:11:59;;;;;;;;;;;;;;;;;;5107653;28;7550;-68
2023/01/12 08:14:24;;;;;;;;;;;;;;;;;;5107735;28;7578;-68
2023/01/12 08:16:49;;;;;;;;;;;;;;;;;;5107469;28;7559;-68
2023/01/12 08:19:14;;;;;;;;;;;;;;;;;;5099396;28;7592;-67
2023/01/12 08:21:44;;;;;;;;;;;;;;;;;;5091984;28;7531;-69
2023/01/12 08:24:09;;;;;;;;;;;;;;;;;;5093530;28;7568;-72
2023/01/12 08:26:34;;;;;;;;;;;;;;;;;;5093848;28;7540;-72
2023/01/12 08:28:59;;;;;;;;;;;;;;;;;;5092285;28;7573;-72
2023/01/12 08:31:24;;;;;;;;;;;;;;;;;;5093521;28;7539;-70
2023/01/12 08:33:49;;;;;;;;;;;;;;;;;;5093570;28;7590;-69
2023/01/12 08:36:14;;;;;;;;;;;;;;;;;;5093389;28;7627;-69
2023/01/12 08:38:40;;;;;;;;;;;;;;;;;;5091892;28;7532;-69
2023/01/12 08:44:01;;;;;;;;;;;;;;;;;;5091310;28;7524;-69
2023/01/12 08:46:26;;;;;;;;;;;;;;;;;;5090336;28;7524;-70
2023/01/12 08:48:52;;;;;;;;;;;;;;;;;;5093013;28;7534;-69
2023/01/12 08:51:18;;;;;;;;;;;;;;;;;;5091391;28;7531;-69
2023/01/12 08:53:43;;;;;;;;;;;;;;;;;;5091608;28;7639;-70
2023/01/12 08:56:08;;;;;;;;;;;;;;;;;;5091513;28;7532;-70
2023/01/12 08:58:33;;;;;;;;;;;;;;;;;;5092640;28;7536;-71
2023/01/12 09:00:59;;;;;;;;;;;;;;;;;;5092802;28;7527;-70
2023/01/12 09:03:24;;;;;;;;;;;;;;;;;;5092391;28;7524;-69
2023/01/12 09:05:49;;;;;;;;;;;;;;;;;;5092788;28;7532;-69
2023/01/12 09:08:14;;;;;;;;;;;;;;;;;;5091555;28;7528;-70
2023/01/12 09:10:39;;;;;;;;;;;;;;;;;;5092765;28;7544;-69
2023/01/12 09:13:05;;;;;;;;;;;;;;;;;;5092442;28;7531;-69
2023/01/12 09:15:30;;;;;;;;;;;;;;;;;;5091086;28;7509;-70
2023/01/12 09:17:55;;;;;;;;;;;;;;;;;;5092225;28;7528;-69
2023/01/12 09:20:20;;;;;;;;;;;;;;;;;;5090697;28;7532;-70
2023/01/12 09:22:45;;;;;;;;;;;;;;;;;;5089538;28;7524;-70
2023/01/12 09:25:11;;;;;;;;;;;;;;;;;;5092581;28;7614;-70
2023/01/12 09:27:36;;;;;;;;;;;;;;;;;;5092367;28;7532;-70
2023/01/12 09:30:01;;;;;;;;;;;;;;;;;;5090185;28;7516;-70
2023/01/12 09:32:26;;;;;;;;;;;;;;;;;;5091708;28;7525;-69
2023/01/12 09:34:53;;;;;;;;;;;;;;;;;;5092000;28;7536;-69
2023/01/12 09:37:18;;;;;;;;;;;;;;;;;;5090443;28;7581;-70
2023/01/12 09:39:43;;;;;;;;;;;;;;;;;;5092299;28;7520;-70
2023/01/12 09:47:38;;;;;;;;;;;;;;;;;;5092134;28;7996;-70
2023/01/12 09:50:03;;;;;;;;;;;;;;;;;;5091880;28;7504;-71
2023/01/12 09:52:28;;;;;;;;;;;;;;;;;;5092042;28;7524;-70
2023/01/12 09:54:53;;;;;;;;;;;;;;;;;;5090530;28;7524;-71
2023/01/12 09:57:18;;;;;;;;;;;;;;;;;;5091832;28;7623;-70
2023/01/12 09:59:43;;;;;;;;;;;;;;;;;;5091918;28;7543;-70
2023/01/12 10:02:08;;;;;;;;;;;;;;;;;;5091784;28;7523;-70
2023/01/12 10:04:34;;;;;;;;;;;;;;;;;;5091840;28;7590;-70
2023/01/12 10:07:00;;;;;;;;;;;;;;;;;;5091762;28;7520;-69
2023/01/12 10:09:25;;;;;;;;;;;;;;;;;;5091853;28;7528;-69
2023/01/12 10:11:51;;;;;;;;;;;;;;;;;;5091807;28;7535;-70
2023/01/12 10:14:16;;;;;;;;;;;;;;;;;;5091246;28;7536;-70
2023/01/12 10:16:41;;;;;;;;;;;;;;;;;;5086012;22;7552;-69
2023/01/12 10:19:06;;;;;;;;;;;;;;;;;;5051490;28;7567;-69
2023/01/12 10:21:31;;;;;;;;;;;;;;;;;;5051527;28;8123;-69
2023/01/12 10:23:56;;;;;;;;;;;;;;;;;;5051507;28;7532;-69
2023/01/12 10:26:21;;;;;;;;;;;;;;;;;;5049929;28;7521;-70
2023/01/12 10:28:47;;;;;;;;;;;;;;;;;;5051133;28;7541;-69
2023/01/12 10:31:12;;;;;;;;;;;;;;;;;;5051134;28;7575;-68
2023/01/12 10:33:37;;;;;;;;;;;;;;;;;;5050688;28;7600;-69
2023/01/12 10:36:02;;;;;;;;;;;;;;;;;;5064737;28;7525;-70
2023/01/12 10:38:27;;;;;;;;;;;;;;;;;;5070924;28;7670;-70
2023/01/12 10:40:52;;;;;;;;;;;;;;;;;;5070946;28;7531;-70
2023/01/12 10:43:17;;;;;;;;;;;;;;;;;;5070574;28;7540;-70
2023/01/12 10:45:43;;;;;;;;;;;;;;;;;;5070944;28;7615;-69
2023/01/12 10:48:08;;;;;;;;;;;;;;;;;;5070833;28;7536;-68
2023/01/12 10:50:35;;;;;;;;;;;;;;;;;;5070842;28;7524;-69
2023/01/12 10:53:00;;;;;;;;;;;;;;;;;;5070715;28;7524;-69
2023/01/12 10:55:25;;;;;;;;;;;;;;;;;;5070447;28;7937;-69
2023/01/12 10:57:50;;;;;;;;;;;;;;;;;;5069459;28;7516;-68
2023/01/12 11:00:15;;;;;;;;;;;;;;;;;;5070703;28;7543;-69
2023/01/12 11:02:40;;;;;;;;;;;;;;;;;;5070664;28;7601;-70
2023/01/12 11:05:06;;;;;;;;;;;;;;;;;;5070565;28;7528;-69
2023/01/12 11:07:32;;;;;;;;;;;;;;;;;;5070881;28;7620;-69
2023/01/12 11:09:57;;;;;;;;;;;;;;;;;;5070656;28;7612;-68
2023/01/12 11:12:22;;;;;;;;;;;;;;;;;;5070509;28;7608;-68
2023/01/12 11:14:47;;;;;;;;;;;;;;;;;;5068848;28;7593;-69
2023/01/12 11:17:12;;;;;;;;;;;;;;;;;;5070699;28;7563;-70
2023/01/12 11:19:37;;;;;;;;;;;;;;;;;;5070427;28;7674;-70
2023/01/12 11:22:03;;;;;;;;;;;;;;;;;;5069064;28;7528;-70
2023/01/12 11:24:28;;;;;;;;;;;;;;;;;;5070483;28;7594;-69
2023/01/12 11:26:53;;;;;;;;;;;;;;;;;;5070543;28;7638;-70
2023/01/12 11:29:24;;;;;;;;;0.00;0.00;;;;;;;;5068465;28;7539;-70
2023/01/12 11:31:52;;;;;;;;;1.00;1.00;;;;;;;;5068783;28;8785;-70
2023/01/12 11:34:17;;;;;;;;;;;;;;;;;;5071449;28;8784;-69
2023/01/12 11:36:42;;;;;;;;;;;;;;;;;;5070259;28;7550;-69
2023/01/12 11:39:07;;;;;;;;;;;;;;;;;;5070468;28;7537;-69
2023/01/12 11:41:33;;;;;;;;;;;;;;;;;;5069028;28;7527;-68
2023/01/12 11:44:17;;;;;;;;;1.00;0.00;;;;;;;;5068486;28;7529;-69
2023/01/12 11:46:48;;;;;;;;;3.00;3.00;;;;;;;;5068662;28;8800;-69
2023/01/12 11:49:28;;;;;;;;;9.50;7.75;;;;;;;;5064630;28;13373;-69
2023/01/12 11:51:55;;;;;;;;;3.50;3.50;;;;;;;;5065087;28;13443;-69
2023/01/12 11:54:21;;;;;;;;;3.25;2.00;;;;;;;;5066732;28;13496;-69
2023/01/12 11:56:46;;;;;;;;;;;;;;;;;;5075001;28;9532;-69
2023/01/12 11:59:16;;;;;;;;;0.00;0.00;;;;;;;;5072360;28;8080;-69
2023/01/12 12:01:44;;;;;;;;;1.00;1.00;;;;;;;;5068897;28;13367;-69
2023/01/12 12:04:18;;;;;;;;;2.00;2.00;;;;;;;;5068622;28;13402;-69
2023/01/12 12:06:44;;;;;;;;;;;;;;;;;;5073866;28;8812;-69
2023/01/12 12:09:24;;;;;;;;;0.25;0.00;;;;;;;;5072078;28;7966;-69
2023/01/12 12:12:04;;;;;;;;;1.00;1.00;;;;;;;;5069354;28;14071;-70
2023/01/12 12:14:53;;;;;;;;;0.75;0.75;;;;;;;;5068790;28;13357;-70
2023/01/12 12:17:37;;;;;;;;;2.75;1.75;;;;;;;;5068686;28;14142;-69
2023/01/12 12:20:02;;;;;;;;;;;;;;;;;;5074323;28;10673;-69
2023/01/12 12:22:27;;;;;;;;;0.00;0.00;;;;;;;;5071262;28;7548;-69
2023/01/12 12:24:56;;;;;;;;;4.00;3.00;;;;;;;;5068460;28;13358;-69
2023/01/12 12:27:21;;;;;;;;;;;;;;;;;;5074371;28;8804;-70
2023/01/12 12:29:46;;;;;;;;;;;;;;;;;;5073332;28;7520;-70
2023/01/12 12:32:11;;;;;;;;;;;;;;;;;;5073301;28;7512;-69
2023/01/12 12:34:36;;;;;;;;;;;;;;;;;;5073157;28;7520;-69
2023/01/12 12:37:04;;;;;;;;;;;;;;;;;;5071572;28;7624;-69
2023/01/12 12:39:29;;;;;;;;;;;;;;;;;;5072810;28;7581;-69
2023/01/12 12:47:22;;;;;;;;;;;;;;;;;;5073180;28;7516;-68
2023/01/12 12:49:47;;;;;;;;;;;;;;;;;;5072902;28;7524;-70
2023/01/12 12:52:12;;;;;;;;;;;;;;;;;;5073098;28;7512;-69
2023/01/12 12:54:37;;;;;;;;;;;;;;;;;;5072414;28;7533;-68
2023/01/12 12:57:03;;;;;;;;;;;;;;;;;;5072636;28;7536;-69
2023/01/12 12:59:28;;;;;;;;;;;;;;;;;;5071602;28;7615;-71
2023/01/12 13:01:53;;;;;;;;;;;;;;;;;;5072824;28;7520;-69
2023/01/12 13:04:18;;;;;;;;;;;;;;;;;;5072816;28;7645;-69
2023/01/12 13:06:43;;;;;;;;;;;;;;;;;;5072568;28;7517;-69
2023/01/12 13:09:12;;;;;;;;;;;;;;;;;;5072774;28;7520;-69
2023/01/12 13:11:38;;;;;;;;;;;;;;;;;;5072748;28;7539;-68
2023/01/12 13:14:03;;;;;;;;;;;;;;;;;;5072420;28;7528;-69
2023/01/12 13:16:28;;;;;;;;;;;;;;;;;;5072594;28;7536;-69
2023/01/12 13:18:53;;;;;;;;;;;;;;;;;;5072533;28;7533;-70
2023/01/12 13:21:19;;;;;;;;;;;;;;;;;;5070931;28;7527;-69
2023/01/12 13:23:44;;;;;;;;;;;;;;;;;;5072173;28;7566;-68
2023/01/12 13:26:09;;;;;;;;;;;;;;;;;;5071190;28;7525;-69
2023/01/12 13:28:34;;;;;;;;;;;;;;;;;;5072363;28;7528;-69
2023/01/12 13:31:01;;;;;;;;;;;;;;;;;;5071891;28;7532;-69
2023/01/12 13:33:26;;;;;;;;;;;;;;;;;;5070756;28;7551;-68
2023/01/12 13:35:51;;;;;;;;;;;;;;;;;;5070697;28;7920;-68
2023/01/12 13:38:16;;;;;;;;;;;;;;;;;;5072149;28;7528;-68
2023/01/12 13:40:41;;;;;;;;;;;;;;;;;;5071991;28;7975;-68
2023/01/12 13:43:16;;;;;;;;;;;;;;;;;;5071844;28;7596;-69
2023/01/12 13:45:41;;;;;;;;;;;;;;;;;;5072242;28;7570;-68
2023/01/12 13:48:06;;;;;;;;;;;;;;;;;;5072938;28;7532;-69
2023/01/12 13:50:33;;;;;;;;;;;;;;;;;;5069886;28;7521;-69
2023/01/12 13:52:58;;;;;;;;;;;;;;;;;;5071622;28;7631;-68
2023/01/12 13:55:24;;;;;;;;;;;;;;;;;;5071747;28;7537;-70
2023/01/12 13:57:49;;;;;;;;;;;;;;;;;;5071957;28;7521;-69
2023/01/12 14:00:15;;;;;;;;;;;;;;;;;;5071685;28;7994;-69
2023/01/12 14:02:40;;;;;;;;;;;;;;;;;;5071584;28;7543;-69
2023/01/12 14:05:05;;;;;;;;;;;;;;;;;;5071376;28;7679;-69
2023/01/12 14:07:30;;;;;;;;;;;;;;;;;;5071188;28;7517;-70
2023/01/12 14:09:55;;;;;;;;;;;;;;;;;;5070258;28;7520;-68
2023/01/12 14:12:20;;;;;;;;;;;;;;;;;;5071753;28;7953;-70
2023/01/12 14:17:48;;;;;;;;;;;;;;;;;;5071249;28;7532;-69
2023/01/12 14:20:13;;;;;;;;;;;;;;;;;;5071128;28;7525;-69
2023/01/12 14:22:38;;;;;;;;;;;;;;;;;;5071202;28;7540;-68
2023/01/12 14:25:03;;;;;;;;;;;;;;;;;;5070921;28;7532;-68
2023/01/12 14:27:28;;;;;;;;;;;;;;;;;;5071071;28;7537;-68
2023/01/12 14:29:53;;;;;;;;;;;;;;;;;;5071281;28;7535;-69
2023/01/12 14:32:19;;;;;;;;;;;;;;;;;;5070957;28;7537;-68
2023/01/12 14:34:45;;;;;;;;;;;;;;;;;;5070953;28;7524;-68
2023/01/12 14:37:10;;;;;;;;;;;;;;;;;;5070672;28;7579;-69
2023/01/12 14:39:39;;;;;;;;;;;;;;;;;;5070896;28;7517;-69
2023/01/12 14:47:33;;;;;;;;;;;;;;;;;;5070985;28;7509;-68
2023/01/12 14:49:58;;;;;;;;;;;;;;;;;;5070865;28;8003;-68
2023/01/12 14:52:24;;;;;;;;;;;;;;;;;;5070961;28;7509;-69
2023/01/12 14:54:51;;;;;;;;;1.00;1.00;;;;;;;;5067781;28;7524;-69
2023/01/12 14:57:35;;;;;;;;;7.80;6.20;;;;;;;;5065642;28;14140;-69
2023/01/12 15:00:01;;;;;;;;;;;;;;;;;;5071640;28;8796;-68
2023/01/12 15:02:26;;;;;;;;;;;;;;;;;;5070298;28;7582;-70
2023/01/12 15:04:51;;;;;;;;;;;;;;;;;;5070708;28;7525;-68
2023/01/12 15:07:16;;;;;;;;;;;;;;;;;;5070737;28;7521;-69
2023/01/12 15:09:41;;;;;;;;;;;;;;;;;;5070631;28;7524;-69
2023/01/12 15:12:06;;;;;;;;;;;;;;;;;;5070677;28;7544;-69
2023/01/12 15:14:31;;;;;;;;;;;;;;;;;;5070826;28;7521;-69
2023/01/12 15:27:52;;;;;;;;;;;;;;;;;;5070725;28;7528;-69
2023/01/12 15:30:17;;;;;;;;;;;;;;;;;;5072606;28;7539;-69
2023/01/12 15:32:42;;;;;;;;;;;;;;;;;;5074421;28;7547;-70
2023/01/12 15:35:08;;;;;;;;;;;;;;;;;;5072841;28;7532;-69
2023/01/12 15:37:33;;;;;;;;;;;;;;;;;;5072644;28;7520;-68
2023/01/12 15:40:00;;;;;;;;;;;;;;;;;;5057140;28;7532;-69
2023/01/12 15:42:25;;;;;;;;;;;;;;;;;;5032947;28;8007;-70
2023/01/12 15:44:50;;;;;;;;;;;;;;;;;;5034453;28;7984;-69
2023/01/12 15:47:15;;;;;;;;;;;;;;;;;;5034542;28;7529;-68
2023/01/12 15:49:40;;;;;;;;;;;;;;;;;;5034337;28;7539;-70
2023/01/12 15:52:05;;;;;;;;;;;;;;;;;;5034172;28;7541;-68
2023/01/12 15:54:31;;;;;;;;;;;;;;;;;;5034211;28;7529;-69
2023/01/12 15:56:58;;;;;;;;;;;;;;;;;;5035507;28;7984;-68
2023/01/12 15:59:23;;;;;;;;;;;;;;;;;;5045801;28;7521;-69
2023/01/12 16:01:48;;;;;;;;;;;;;;;;;;5043819;28;7644;-68
2023/01/12 16:04:13;;;;;;;;;;;;;;;;;;5046302;28;7541;-69
2023/01/12 16:06:38;;;;;;;;;;;;;;;;;;5047298;28;7525;-70
2023/01/12 16:09:04;;;;;;;;;;;;;;;;;;5042673;28;7533;-69
2023/01/12 16:11:29;;;;;;;;;;;;;;;;;;5043374;28;9554;-69
2023/01/12 16:13:54;;;;;;;;;;;;;;;;;;5042698;28;7721;-71
2023/01/12 16:16:23;;;;;;;;;;;;;;;;;;5050561;28;7548;-70
2023/01/12 16:18:49;;;;;;;;;;;;;;;;;;5053772;28;7567;-70
2023/01/12 16:21:14;;;;;;;;;;;;;;;;;;5053696;28;7529;-70
2023/01/12 16:23:39;;;;;;;;;;;;;;;;;;5053862;28;7619;-69
2023/01/12 16:26:05;;;;;;;;;;;;;;;;;;5053723;28;7532;-69
2023/01/12 16:28:31;;;;;;;;;1.00;0.00;;;;;;;;5051724;28;7524;-70
2023/01/12 16:30:56;;;;;;;;;2.00;2.00;;;;;;;;5048356;28;13396;-70
2023/01/12 16:33:22;;;;;;;;;2.00;2.00;;;;;;;;5048284;28;13474;-70
2023/01/12 16:35:47;;;;;;;;;7.00;6.00;;;;;;;;5059836;28;13466;-69
2023/01/12 16:38:13;;;;;;;;;1.50;1.00;;;;;;;;5071679;28;8820;-70
2023/01/12 16:40:38;;;;;;;;;;;;;;;;;;5073812;28;8812;-70
2023/01/12 16:43:03;;;;;;;;;;;;;;;;;;5073384;28;7520;-69
2023/01/12 16:45:29;;;;;;;;;;;;;;;;;;5072030;28;7562;-69
2023/01/12 16:47:54;;;;;;;;;;;;;;;;;;5071557;28;7520;-69
2023/01/12 16:50:19;;;;;;;;;;;;;;;;;;5071781;28;7513;-70
2023/01/12 16:52:44;;;;;;;;;;;;;;;;;;5071887;28;7525;-73
2023/01/12 16:55:09;;;;;;;;;;;;;;;;;;5072039;28;7607;-68
2023/01/12 16:57:36;;;;;;;;;;;;;;;;;;5073462;28;7529;-69
2023/01/12 17:00:01;;;;;;;;;;;;;;;;;;5073820;28;7529;-70
2023/01/12 17:02:28;;;;;;;;;;;;;;;;;;5073518;28;7524;-68
2023/01/12 17:04:53;;;;;;;;;;;;;;;;;;5071880;28;7533;-69
2023/01/12 17:07:18;;;;;;;;;;;;;;;;;;5072911;28;7600;-69
2023/01/12 17:09:43;;;;;;;;;;;;;;;;;;5073157;28;7559;-69
2023/01/12 17:12:08;;;;;;;;;;;;;;;;;;5073017;28;7538;-68
2023/01/12 17:14:33;;;;;;;;;;;;;;;;;;5072927;28;7582;-69
2023/01/12 17:16:59;;;;;;;;;;;;;;;;;;5072614;28;7533;-69
2023/01/12 17:19:24;;;;;;;;;;;;;;;;;;5072929;28;7532;-70
2023/01/12 17:21:50;;;;;;;;;;;;;;;;;;5072720;28;7520;-69
2023/01/12 17:24:16;;;;;;;;;;;;;;;;;;5072694;28;7619;-69
2023/01/12 17:26:41;;;;;;;;;;;;;;;;;;5072467;28;7650;-68
2023/01/12 17:29:06;;;;;;;;;;;;;;;;;;5059975;28;7540;-69
2023/01/12 17:31:32;;;;;;;;;;;;;;;;;;5041673;28;7556;-69
2023/01/12 17:33:57;;;;;;;;;;;;;;;;;;5041672;28;7630;-69
2023/01/12 17:36:22;;;;;;;;;;;;;;;;;;5043088;28;7521;-69
2023/01/12 17:38:47;;;;;;;;;;;;;;;;;;5042565;28;7553;-69
2023/01/12 17:43:56;;;;;;;;;;;;;;;;;;5041717;28;7513;-72
2023/01/12 17:46:21;;;;;;;;;;;;;;;;;;5049038;28;7610;-71
2023/01/12 17:48:47;;;;;;;;;;;;;;;;;;5047577;28;7968;-70
2023/01/12 17:51:12;;;;;;;;;;;;;;;;;;5029851;28;7521;-73
2023/01/12 17:53:38;;;;;;;;;;;;;;;;;;5031792;28;7747;-70
2023/01/12 17:56:04;;;;;;;;;;;;;;;;;;5030616;28;7521;-71
2023/01/12 17:58:30;;;;;;;;;;;;;;;;;;5031805;28;7532;-69
2023/01/12 18:00:55;;;;;;;;;;;;;;;;;;5031751;28;7529;-73
2023/01/12 18:03:20;;;;;;;;;;;;;;;;;;5030437;28;7524;-71
2023/01/12 18:05:45;;;;;;;;;;;;;;;;;;5054567;28;7509;-71
2023/01/12 18:08:11;;;;;;;;;;;;;;;;;;5071670;28;7992;-69
2023/01/12 18:10:36;;;;;;;;;;;;;;;;;;5071579;28;7574;-71
2023/01/12 18:13:01;;;;;;;;;;;;;;;;;;5071345;28;7520;-73
2023/01/12 18:15:28;;;;;;;;;;;;;;;;;;5071231;28;7547;-69
2023/01/12 18:17:53;;;;;;;;;;;;;;;;;;5071734;28;7536;-70
2023/01/12 18:20:18;;;;;;;;;;;;;;;;;;5071376;28;7533;-68
2023/01/12 18:22:43;;;;;;;;;;;;;;;;;;5072382;28;7531;-69
2023/01/12 18:25:09;;;;;;;;;;;;;;;;;;5072243;28;7544;-70
2023/01/12 18:27:34;;;;;;;;;;;;;;;;;;5071524;28;7574;-69
2023/01/12 18:29:59;;;;;;;;;;;;;;;;;;5070906;28;7524;-69
2023/01/12 18:32:24;;;;;;;;;;;;;;;;;;5069580;28;7524;-68
2023/01/12 18:34:49;;;;;;;;;;;;;;;;;;5070961;28;7528;-70
2023/01/12 18:37:15;;;;;;;;;;;;;;;;;;5070835;28;7536;-70
2023/01/12 18:39:42;;;;;;;;;;;;;;;;;;5071024;28;7536;-69
2023/01/12 18:44:51;;;;;;;;;;;;;;;;;;5070770;28;7513;-69
2023/01/12 18:53:22;;;;;;;;;;;;;;;;;;5070959;28;7528;-69
2023/01/12 18:55:33;;;;;;;;;;;;;;;;;;5070772;28;7516;-70
2023/01/12 18:57:58;;;;;;;;;;;;;;;;;;5069294;28;7558;-69
2023/01/12 19:00:23;;;;;;;;;;;;;;;;;;5053007;28;7537;-69
2023/01/12 19:02:48;;;;;;;;;;;;;;;;;;5048903;28;7533;-69
2023/01/12 19:08:00;;;;;;;;;;;;;;;;;;5068977;28;7627;-70
2023/01/12 19:10:24;;;;;;;;;;;;;;;;;;5043620;28;7525;-69
2023/01/12 19:12:49;;;;;;;;;;;;;;;;;;5029348;28;7544;-69
2023/01/12 19:17:58;;;;;;;;;;;;;;;;;;5040652;28;7528;-69
2023/01/12 19:20:27;;;;;;;;;;;;;;;;;;5050529;28;7528;-70
2023/01/12 19:28:31;;;;;;;;;;;;;;;;;;5050652;28;7517;-69
2023/01/12 19:28:37;;;;;;;;;;;;;;;;;;5050131;28;7513;-69
2023/01/12 19:31:02;;;;;;;;;;;;;;;;;;5050773;28;7524;-69
2023/01/12 19:33:27;;;;;;;;;;;;;;;;;;5049034;28;7944;-68
2023/01/12 19:35:52;;;;;;;;;;;;;;;;;;5062647;28;7540;-69
2023/01/12 19:38:17;;;;;;;;;;;;;;;;;;5040672;28;7579;-67
2023/01/12 19:40:51;;;;;;;;;;;;;;;;;;5040800;28;7529;-71
2023/01/12 19:43:19;;;;;;;;;;;;;;;;;;5032070;28;7548;-69
2023/01/12 19:45:44;;;;;;;;;;;;;;;;;;5050647;28;7521;-67
2023/01/12 19:48:09;;;;;;;;;;;;;;;;;;5049598;28;8018;-68
2023/01/12 19:50:34;;;;;;;;;;;;;;;;;;5050590;28;7517;-72
2023/01/12 19:53:00;;;;;;;;;;;;;;;;;;5050354;28;7624;-68
2023/01/12 19:55:25;;;;;;;;;;;;;;;;;;5048684;28;7540;-69
2023/01/12 19:57:50;;;;;;;;;;;;;;;;;;5049979;28;7533;-67
2023/01/12 20:00:16;;;;;;;;;;;;;;;;;;5050151;28;7536;-68
2023/01/12 20:02:41;;;;;;;;;;;;;;;;;;5049326;28;8822;-67
2023/01/12 20:05:07;;;;;;;;;;;;;;;;;;5053628;28;7520;-68
2023/01/12 20:07:32;;;;;;;;;;;;;;;;;;5068598;28;7516;-68
2023/01/12 20:10:00;;;;;;;;;;;;;;;;;;5070197;28;7548;-67
2023/01/12 20:12:26;;;;;;;;;;;;;;;;;;5061298;28;7975;-67
2023/01/12 20:14:51;;;;;;;;;;;;;;;;;;5043765;28;7623;-68
2023/01/12 20:17:16;;;;;;;;;;;;;;;;;;5049810;28;7617;-68
2023/01/12 20:19:41;;;;;;;;;;;;;;;;;;5051636;28;7699;-69
2023/01/12 20:22:06;;;;;;;;;;;;;;;;;;5051859;28;7594;-69
2023/01/12 20:24:32;;;;;;;;;;;;;;;;;;5051747;28;7578;-67
2023/01/12 20:26:57;;;;;;;;;;;;;;;;;;5051487;28;7541;-71
2023/01/12 20:29:22;;;;;;;;;;;;;;;;;;5051394;28;7529;-67
2023/01/12 20:31:48;;;;;;;;;;;;;;;;;;5051316;28;7541;-67
2023/01/12 20:34:14;;;;;;;;;;;;;;;;;;5043188;28;7547;-72
2023/01/12 20:36:39;;;;;;;;;;;;;;;;;;5042862;28;7529;-68
2023/01/12 20:39:04;;;;;;;;;;;;;;;;;;5040933;28;7553;-67
2023/01/12 20:41:29;;;;;;;;;;;;;;;;;;5039071;28;7513;-68
2023/01/12 20:43:54;;;;;;;;;;;;;;;;;;5042367;28;7636;-68
2023/01/12 20:46:19;;;;;;;;;;;;;;;;;;5035122;28;7544;-70
2023/01/12 20:48:45;;;;;;;;;;;;;;;;;;5035969;28;7567;-69
2023/01/12 20:51:10;;;;;;;;;;;;;;;;;;5046111;28;7525;-69
2023/01/12 20:53:35;;;;;;;;;;;;;;;;;;5041512;28;7532;-67
2023/01/12 20:56:00;;;;;;;;;;;;;;;;;;5040245;28;7535;-67
2023/01/12 20:58:25;;;;;;;;;;;;;;;;;;5059516;28;7552;-68
2023/01/12 21:00:51;;;;;;;;;;;;;;;;;;5040537;28;7579;-67
2023/01/12 21:03:16;;;;;;;;;;;;;;;;;;5048006;28;7547;-69
2023/01/12 21:05:42;;;;;;;;;;;;;;;;;;5057841;28;7520;-68
2023/01/12 21:08:07;;;;;;;;;;;;;;;;;;5072870;28;7566;-67
2023/01/12 21:10:32;;;;;;;;;;;;;;;;;;5072654;28;7520;-68
2023/01/12 21:12:57;;;;;;;;;;;;;;;;;;5062643;28;7532;-68
2023/01/12 21:15:22;;;;;;;;;;;;;;;;;;5052761;28;7525;-66
2023/01/12 21:17:47;;;;;;;;;;;;;;;;;;5051138;28;7606;-67
2023/01/12 21:20:13;;;;;;;;;;;;;;;;;;5033647;28;7587;-67
2023/01/12 21:22:38;;;;;;;;;;;;;;;;;;5032455;28;7984;-67
2023/01/12 21:25:03;;;;;;;;;;;;;;;;;;5032634;28;7551;-67
2023/01/12 21:27:29;;;;;;;;;;;;;;;;;;5032568;28;7525;-67
2023/01/12 21:29:55;;;;;;;;;;;;;;;;;;5032610;28;7529;-67
2023/01/12 21:32:22;;;;;;;;;;;;;;;;;;5032924;28;7936;-68
2023/01/12 21:34:49;;;;;;;;;;;;;;;;;;5039569;28;7534;-67
2023/01/12 21:37:14;;;;;;;;;;;;;;;;;;5070625;28;7532;-67
2023/01/12 21:39:39;;;;;;;;;;;;;;;;;;5056943;28;7552;-67
